createdAt,value
2018-01-31T01:53:45.915Z,23.20
2018-01-31T01:56:24.320Z,21.25
2018-01-31T02:01:54.775Z,23.17
2018-01-31T02:04:23.093Z,22.47
2018-01-31T02:06:50.630Z,22.50
2018-01-31T02:09:18.191Z,23.10
2018-01-31T02:11:45.723Z,23.13
2018-01-31T02:14:14.580Z,20.52
2018-01-31T02:16:42.143Z,20.53
2018-01-31T02:19:09.678Z,18.47
2018-01-31T02:21:37.215Z,19.67
2018-01-31T02:24:05.536Z,18.80
2018-01-31T02:26:33.075Z,19.30
2018-01-31T02:29:00.604Z,18.67
2018-01-31T02:31:28.188Z,19.73
2018-01-31T02:33:55.727Z,19.43
2018-01-31T02:36:23.263Z,17.83
2018-01-31T02:39:02.603Z,18.80
2018-01-31T02:41:30.134Z,18.65
2018-01-31T02:43:57.684Z,18.47
2018-01-31T02:46:25.295Z,19.37
2018-01-31T02:48:53.599Z,18.80
2018-01-31T02:51:21.130Z,19.08
2018-01-31T02:53:49.467Z,19.50
2018-01-31T02:56:17.004Z,19.93
2018-01-31T02:58:44.555Z,18.03
2018-01-31T03:01:12.113Z,18.50
2018-01-31T03:03:45.187Z,22.00
2018-01-31T03:06:15.046Z,19.73
2018-01-31T03:08:43.070Z,16.98
2018-01-31T03:11:10.611Z,18.93
2018-01-31T03:13:38.171Z,18.47
2018-01-31T03:16:05.706Z,15.23
2018-01-31T03:18:33.243Z,15.63
2018-01-31T03:21:00.811Z,14.70
2018-01-31T03:23:28.349Z,14.40
2018-01-31T03:25:55.892Z,15.67
2018-01-31T03:28:24.015Z,15.23
2018-01-31T03:30:51.598Z,13.67
2018-01-31T03:33:19.135Z,14.60
2018-01-31T03:35:46.690Z,14.43
2018-01-31T03:38:15.351Z,13.27
2018-01-31T03:40:42.897Z,13.07
2018-01-31T03:43:10.467Z,14.00
2018-01-31T03:45:37.995Z,12.50
2018-01-31T03:48:05.533Z,13.48
2018-01-31T03:50:33.587Z,13.70
2018-01-31T03:53:01.119Z,13.90
2018-01-31T03:55:28.651Z,14.53
2018-01-31T03:57:56.967Z,12.60
2018-01-31T04:00:24.507Z,13.73
2018-01-31T04:02:52.059Z,13.20
2018-01-31T04:05:19.663Z,14.15
2018-01-31T04:07:47.201Z,13.70
2018-01-31T04:10:16.815Z,13.75
2018-01-31T04:12:45.017Z,13.90
2018-01-31T04:15:12.559Z,14.48
2018-01-31T04:17:40.082Z,14.13
2018-01-31T04:20:07.655Z,13.30
2018-01-31T04:22:35.195Z,14.43
2018-01-31T04:25:03.495Z,14.60
2018-01-31T04:27:31.050Z,14.30
2018-01-31T04:29:58.584Z,14.67
2018-01-31T04:32:26.886Z,14.03
2018-01-31T04:34:55.015Z,14.10
2018-01-31T04:37:22.561Z,14.30
2018-01-31T04:39:50.099Z,15.20
2018-01-31T04:42:17.676Z,14.37
2018-01-31T04:44:45.226Z,16.03
2018-01-31T04:47:13.679Z,16.07
2018-01-31T04:49:41.255Z,15.30
2018-01-31T04:52:08.793Z,13.97
2018-01-31T04:54:36.339Z,51.97
2018-01-31T04:57:04.363Z,32.60
2018-01-31T04:59:31.923Z,20.13
2018-01-31T05:01:59.568Z,14.23
2018-01-31T05:04:27.136Z,12.70
2018-01-31T05:06:54.691Z,13.47
2018-01-31T05:09:22.231Z,12.87
2018-01-31T05:11:50.115Z,12.13
2018-01-31T05:14:17.647Z,12.33
2018-01-31T05:19:43.943Z,12.03
2018-01-31T05:22:11.484Z,12.23
2018-01-31T05:24:39.023Z,11.03
2018-01-31T05:27:06.595Z,11.27
2018-01-31T05:29:34.131Z,11.07
2018-01-31T05:32:02.444Z,10.47
2018-01-31T05:34:30.035Z,11.27
2018-01-31T05:36:57.607Z,11.10
2018-01-31T05:39:25.154Z,10.77
2018-01-31T05:41:53.228Z,10.83
2018-01-31T05:44:20.870Z,11.47
2018-01-31T05:46:48.411Z,11.93
2018-01-31T05:49:16.451Z,11.90
2018-01-31T05:51:44.012Z,12.77
2018-01-31T05:54:12.320Z,12.77
2018-01-31T05:56:39.888Z,10.43
2018-01-31T05:59:07.424Z,11.43
2018-01-31T06:01:34.974Z,11.07
2018-01-31T06:04:04.027Z,10.88
2018-01-31T06:06:31.567Z,11.33
2018-01-31T06:08:59.110Z,12.70
2018-01-31T06:11:26.676Z,11.30
2018-01-31T06:13:54.916Z,11.70
2018-01-31T06:16:23.239Z,10.48
2018-01-31T06:18:50.815Z,10.83
2018-01-31T06:21:18.376Z,11.67
2018-01-31T06:23:45.920Z,11.10
2018-01-31T06:26:14.872Z,12.82
2018-01-31T06:28:43.179Z,10.97
2018-01-31T06:31:10.719Z,12.23
2018-01-31T06:33:39.046Z,12.07
2018-01-31T06:36:06.664Z,11.80
2018-01-31T06:38:34.211Z,11.37
2018-01-31T06:41:02.543Z,11.10
2018-01-31T06:43:30.081Z,10.67
2018-01-31T06:45:57.622Z,11.33
2018-01-31T06:48:25.247Z,11.50
2018-01-31T06:50:53.651Z,10.90
2018-01-31T06:53:21.190Z,12.43
2018-01-31T06:55:48.817Z,11.57
2018-01-31T06:58:17.285Z,12.63
2018-01-31T07:00:44.815Z,9.90
2018-01-31T07:03:14.084Z,10.03
2018-01-31T07:05:41.627Z,10.23
2018-01-31T07:08:09.155Z,9.57
2018-01-31T07:10:36.946Z,10.50
2018-01-31T07:13:04.486Z,9.30
2018-01-31T07:15:32.271Z,9.80
2018-01-31T07:17:59.938Z,11.00
2018-01-31T07:20:27.487Z,9.40
2018-01-31T07:22:55.022Z,10.67
2018-01-31T07:25:22.599Z,9.33
2018-01-31T07:27:50.159Z,9.27
2018-01-31T07:30:17.708Z,9.13
2018-01-31T07:32:46.019Z,8.50
2018-01-31T07:35:14.612Z,9.10
2018-01-31T07:37:42.156Z,10.00
2018-01-31T07:40:09.723Z,12.00
2018-01-31T07:42:37.271Z,14.43
2018-01-31T07:45:04.811Z,11.50
2018-01-31T07:47:32.379Z,9.80
2018-01-31T07:49:59.919Z,9.80
2018-01-31T07:52:27.455Z,8.80
2018-01-31T07:54:55.392Z,9.70
2018-01-31T07:57:22.943Z,10.43
2018-01-31T07:59:50.481Z,10.65
2018-01-31T08:02:18.051Z,9.90
2018-01-31T08:04:45.596Z,11.10
2018-01-31T08:07:26.248Z,10.50
2018-01-31T08:17:20.074Z,9.97
2018-01-31T08:19:47.611Z,10.03
2018-01-31T08:22:16.412Z,9.82
2018-01-31T08:24:44.755Z,10.90
2018-01-31T08:27:12.291Z,8.87
2018-01-31T08:29:39.830Z,10.80
2018-01-31T08:32:07.390Z,10.00
2018-01-31T08:34:34.927Z,9.67
2018-01-31T08:37:03.231Z,10.68
2018-01-31T08:39:31.996Z,10.80
2018-01-31T08:42:00.443Z,9.40
2018-01-31T08:44:27.975Z,9.13
2018-01-31T08:46:55.536Z,9.07
2018-01-31T08:49:23.084Z,9.23
2018-01-31T08:51:50.619Z,9.40
2018-01-31T08:54:18.187Z,10.47
2018-01-31T08:56:45.735Z,11.80
2018-01-31T08:59:14.583Z,10.40
2018-01-31T09:01:42.755Z,11.90
2018-01-31T09:04:10.300Z,11.03
2018-01-31T09:06:37.855Z,11.57
2018-01-31T09:09:05.440Z,10.43
2018-01-31T09:11:32.991Z,10.38
2018-01-31T09:14:00.536Z,11.03
2018-01-31T09:16:28.111Z,10.90
2018-01-31T09:18:55.655Z,10.77
2018-01-31T09:21:23.228Z,10.67
2018-01-31T09:23:51.731Z,10.50
2018-01-31T09:26:19.275Z,10.53
2018-01-31T09:28:46.814Z,9.60
2018-01-31T09:31:15.519Z,9.03
2018-01-31T09:33:43.064Z,11.07
2018-01-31T09:36:11.397Z,10.83
2018-01-31T09:38:38.979Z,9.27
2018-01-31T09:41:06.519Z,9.88
2018-01-31T09:43:34.065Z,9.20
2018-01-31T09:46:02.215Z,9.50
2018-01-31T09:48:29.751Z,9.20
2018-01-31T09:50:57.287Z,8.87
2018-01-31T09:53:24.883Z,8.07
2018-01-31T09:55:52.431Z,8.83
2018-01-31T09:58:19.980Z,7.68
2018-01-31T10:00:47.542Z,7.72
2018-01-31T10:03:16.423Z,7.97
2018-01-31T10:05:43.959Z,8.13
2018-01-31T10:08:12.103Z,7.78
2018-01-31T10:10:39.633Z,8.77
2018-01-31T10:13:07.162Z,7.80
2018-01-31T10:15:34.874Z,7.80
2018-01-31T10:18:02.417Z,7.93
2018-01-31T10:20:30.472Z,6.70
2018-01-31T10:22:58.038Z,7.37
2018-01-31T10:25:25.570Z,7.35
2018-01-31T10:27:53.875Z,6.70
2018-01-31T10:30:22.278Z,7.18
2018-01-31T10:32:49.819Z,6.83
2018-01-31T10:35:17.360Z,7.10
2018-01-31T10:37:44.915Z,7.27
2018-01-31T10:40:14.155Z,7.55
2018-01-31T10:42:41.688Z,6.30
2018-01-31T10:45:09.270Z,6.93
2018-01-31T10:47:36.811Z,6.90
2018-01-31T10:50:04.353Z,7.67
2018-01-31T10:52:32.023Z,7.40
2018-01-31T10:57:28.722Z,7.20
2018-01-31T10:57:29.193Z,6.53
2018-01-31T10:59:54.784Z,7.10
2018-01-31T11:02:23.088Z,7.22
2018-01-31T11:04:50.627Z,6.93
2018-01-31T11:07:18.191Z,7.10
2018-01-31T11:09:46.503Z,6.30
2018-01-31T11:12:15.523Z,6.00
2018-01-31T11:14:43.587Z,5.93
2018-01-31T11:17:11.300Z,5.83
2018-01-31T11:19:39.599Z,7.40
2018-01-31T11:22:07.599Z,6.50
2018-01-31T11:24:35.140Z,6.27
2018-01-31T11:27:02.683Z,6.30
2018-01-31T11:29:30.257Z,7.30
2018-01-31T11:31:57.799Z,8.20
2018-01-31T11:34:25.343Z,9.30
2018-01-31T11:36:53.786Z,7.87
2018-01-31T11:39:21.317Z,9.63
2018-01-31T11:41:48.859Z,7.77
2018-01-31T11:44:16.512Z,5.73
2018-01-31T11:46:44.816Z,5.80
2018-01-31T11:49:14.039Z,5.70
2018-01-31T11:51:41.602Z,5.70
2018-01-31T11:54:09.144Z,5.00
2018-01-31T11:56:36.688Z,4.90
2018-01-31T11:59:04.903Z,4.73
2018-01-31T12:01:32.442Z,5.20
2018-01-31T12:03:59.979Z,4.20
2018-01-31T12:06:27.538Z,4.93
2018-01-31T12:08:55.063Z,5.20
2018-01-31T12:11:23.367Z,4.62
2018-01-31T12:17:02.845Z,4.83
2018-01-31T12:19:41.763Z,5.05
2018-01-31T12:22:21.839Z,5.23
2018-01-31T12:25:01.266Z,4.40
2018-01-31T12:27:40.628Z,4.60
2018-01-31T12:30:20.154Z,4.00
2018-01-31T12:32:59.287Z,4.67
2018-01-31T12:35:38.654Z,4.33
2018-01-31T12:38:18.116Z,4.03
2018-01-31T12:40:46.159Z,3.60
2018-01-31T12:43:15.072Z,3.90
2018-01-31T12:45:42.119Z,5.30
2018-01-31T12:48:22.359Z,4.00
2018-01-31T12:51:01.636Z,5.00
2018-01-31T12:53:38.995Z,3.50
2018-01-31T12:56:18.218Z,3.97
2018-01-31T12:58:50.572Z,3.97
2018-01-31T13:01:44.759Z,3.47
2018-01-31T13:04:24.534Z,3.67
2018-01-31T13:07:03.727Z,4.00
2018-01-31T13:09:43.196Z,3.57
2018-01-31T13:12:22.581Z,3.97
2018-01-31T13:15:05.614Z,3.80
2018-01-31T13:17:45.786Z,3.83
2018-01-31T13:23:16.767Z,3.40
2018-01-31T13:25:56.197Z,3.60
2018-01-31T13:28:47.353Z,3.63
2018-01-31T13:31:31.841Z,3.67
2018-01-31T13:34:10.998Z,3.43
2018-01-31T13:36:50.797Z,3.67
2018-01-31T13:39:30.392Z,5.00
2018-01-31T13:42:16.820Z,5.60
2018-01-31T13:44:56.989Z,4.40
2018-01-31T13:47:37.200Z,3.80
2018-01-31T13:50:16.332Z,4.60
2018-01-31T13:52:56.200Z,3.87
2018-01-31T13:55:35.565Z,3.27
2018-01-31T13:58:14.900Z,4.07
2018-01-31T14:03:59.708Z,3.13
2018-01-31T14:06:39.106Z,2.60
2018-01-31T14:12:34.298Z,3.60
2018-01-31T14:15:13.634Z,4.00
2018-01-31T14:17:53.099Z,3.70
2018-01-31T14:20:24.299Z,3.10
2018-01-31T14:23:06.248Z,3.80
2018-01-31T14:25:47.807Z,3.37
2018-01-31T14:28:28.320Z,4.10
2018-01-31T14:31:09.427Z,4.43
2018-01-31T14:33:49.185Z,3.40
2018-01-31T14:36:17.322Z,3.80
2018-01-31T14:38:44.418Z,4.30
2018-01-31T14:41:11.492Z,3.90
2018-01-31T14:43:38.837Z,3.50
2018-01-31T14:46:05.960Z,4.00
2018-01-31T14:48:34.197Z,4.15
2018-01-31T14:51:03.359Z,4.23
2018-01-31T14:53:30.423Z,3.00
2018-01-31T14:55:59.317Z,3.50
2018-01-31T14:58:30.040Z,5.40
2018-01-31T15:00:57.106Z,4.15
2018-01-31T15:03:24.926Z,5.17
2018-01-31T15:05:52.816Z,5.97
2018-01-31T15:08:20.185Z,7.00
2018-01-31T15:10:47.244Z,5.17
2018-01-31T15:13:15.943Z,10.20
2018-01-31T15:15:44.201Z,8.03
2018-01-31T15:18:12.785Z,4.63
2018-01-31T15:20:41.078Z,4.50
2018-01-31T15:23:08.174Z,4.20
2018-01-31T15:25:35.962Z,9.57
2018-01-31T15:28:03.111Z,6.03
2018-01-31T15:30:30.178Z,6.35
2018-01-31T15:32:57.276Z,4.43
2018-01-31T15:35:24.398Z,4.67
2018-01-31T15:37:51.463Z,4.60
2018-01-31T15:40:18.532Z,4.20
2018-01-31T15:42:45.644Z,4.90
2018-01-31T15:45:13.220Z,5.12
2018-01-31T15:53:45.486Z,6.67
2018-01-31T15:56:14.051Z,6.50
2018-01-31T16:08:56.764Z,4.53
2018-01-31T16:11:24.611Z,5.70
2018-01-31T16:13:51.683Z,5.40
2018-01-31T16:16:20.056Z,4.90
2018-01-31T16:19:00.309Z,5.93
2018-01-31T16:21:28.657Z,5.00
2018-01-31T16:23:56.551Z,4.97
2018-01-31T16:26:24.532Z,5.73
2018-01-31T16:32:17.027Z,10.03
2018-01-31T16:34:44.621Z,6.43
2018-01-31T16:37:12.176Z,5.93
2018-01-31T16:39:39.801Z,6.87
2018-01-31T16:42:07.388Z,5.80
2018-01-31T16:44:35.066Z,5.00
2018-01-31T16:47:02.634Z,6.07
2018-01-31T16:49:30.302Z,5.20
2018-01-31T16:51:57.864Z,5.17
2018-01-31T16:54:25.467Z,5.75
2018-01-31T16:56:53.696Z,5.50
2018-01-31T16:59:21.248Z,4.83
2018-01-31T17:01:48.813Z,5.50
2018-01-31T17:04:17.297Z,5.43
2018-01-31T17:06:44.856Z,10.10
2018-01-31T17:09:12.432Z,12.77
2018-01-31T17:11:40.585Z,10.40
2018-01-31T17:14:08.568Z,7.97
2018-01-31T17:16:36.158Z,8.47
2018-01-31T17:19:03.750Z,6.40
2018-01-31T17:21:31.310Z,5.93
2018-01-31T17:23:58.915Z,6.73
2018-01-31T17:26:27.648Z,5.90
2018-01-31T17:28:55.199Z,6.13
2018-01-31T17:31:22.777Z,10.77
2018-01-31T17:33:50.637Z,18.67
2018-01-31T17:36:35.970Z,25.49
2018-01-31T17:42:27.468Z,7.37
2018-01-31T17:44:55.088Z,7.07
2018-01-31T17:47:23.403Z,7.43
2018-01-31T17:49:51.039Z,8.80
2018-01-31T17:52:18.587Z,8.07
2018-01-31T17:54:46.896Z,9.80
2018-01-31T17:57:16.099Z,7.87
2018-01-31T18:08:24.391Z,12.43
2018-01-31T18:10:54.470Z,15.80
2018-01-31T18:13:22.021Z,9.37
2018-01-31T18:15:49.598Z,8.80
2018-01-31T18:18:17.369Z,8.97
2018-01-31T18:20:44.995Z,8.30
2018-01-31T18:23:14.495Z,7.40
2018-01-31T18:25:42.019Z,7.07
2018-01-31T18:28:11.882Z,6.82
2018-01-31T18:30:39.463Z,6.07
2018-01-31T18:33:07.036Z,5.53
2018-01-31T18:35:34.559Z,6.70
2018-01-31T18:38:02.107Z,6.30
2018-01-31T18:40:29.633Z,8.63
2018-01-31T18:42:57.155Z,7.87
2018-01-31T18:45:24.722Z,7.03
2018-01-31T18:47:52.250Z,7.43
2018-01-31T18:50:19.790Z,8.70
2018-01-31T18:52:47.455Z,8.00
2018-01-31T18:55:16.498Z,7.20
2018-01-31T18:57:44.036Z,6.83
2018-01-31T19:00:16.779Z,6.87
2018-01-31T19:02:44.324Z,6.47
2018-01-31T19:05:11.842Z,7.20
2018-01-31T19:07:40.160Z,6.63
2018-01-31T19:10:07.691Z,7.43
2018-01-31T19:12:35.278Z,8.57
2018-01-31T19:15:03.906Z,7.93
2018-01-31T19:17:32.203Z,6.50
2018-01-31T19:19:59.748Z,5.43
2018-01-31T19:22:28.063Z,4.93
2018-01-31T19:24:55.599Z,5.40
2018-01-31T19:27:23.137Z,4.83
2018-01-31T19:29:50.967Z,4.70
2018-01-31T19:32:18.542Z,5.10
2018-01-31T19:34:46.076Z,5.00
2018-01-31T19:37:15.896Z,4.50
2018-01-31T19:39:43.532Z,5.20
2018-01-31T19:42:11.099Z,5.10
2018-01-31T19:44:38.702Z,5.90
2018-01-31T19:47:06.279Z,5.00
2018-01-31T19:49:33.831Z,4.97
2018-01-31T19:52:01.440Z,5.20
2018-01-31T19:54:29.002Z,6.27
2018-01-31T19:56:56.534Z,6.80
2018-01-31T19:59:25.695Z,6.20
2018-01-31T20:01:53.247Z,5.10
2018-01-31T20:04:20.812Z,6.10
2018-01-31T20:06:48.745Z,7.77
2018-01-31T20:09:16.428Z,6.93
2018-01-31T20:11:43.970Z,6.63
2018-01-31T20:14:11.515Z,6.47
2018-01-31T20:16:39.042Z,9.43
2018-01-31T20:19:06.632Z,9.50
2018-01-31T20:21:34.303Z,9.83
2018-01-31T20:24:01.842Z,9.10
2018-01-31T20:26:29.483Z,8.73
2018-01-31T20:28:57.039Z,8.27
2018-01-31T20:31:24.838Z,9.17
2018-01-31T20:33:52.432Z,6.90
2018-01-31T20:36:20.084Z,7.35
2018-01-31T20:38:47.614Z,6.87
2018-01-31T20:41:16.514Z,8.15
2018-01-31T20:43:44.183Z,7.70
2018-01-31T20:46:11.765Z,9.33
2018-01-31T20:48:39.474Z,7.50
2018-01-31T20:51:07.064Z,6.40
2018-01-31T20:53:34.646Z,6.73
2018-01-31T20:56:02.231Z,5.30
2018-01-31T20:58:29.925Z,4.97
2018-01-31T21:00:57.487Z,3.93
2018-01-31T21:03:25.829Z,4.27
2018-01-31T21:05:53.697Z,5.40
2018-01-31T21:08:21.234Z,6.57
2018-01-31T21:10:48.939Z,4.93
2018-01-31T21:13:16.578Z,4.70
2018-01-31T21:15:44.154Z,5.50
2018-01-31T21:18:11.687Z,4.40
2018-01-31T21:20:39.239Z,4.10
2018-01-31T21:23:06.779Z,5.07
2018-01-31T21:25:34.316Z,5.10
2018-01-31T21:28:01.990Z,10.27
2018-01-31T21:30:31.287Z,6.57
2018-01-31T21:32:59.583Z,11.33
2018-01-31T21:35:27.147Z,6.67
2018-01-31T21:37:54.683Z,7.87
2018-01-31T21:40:23.719Z,6.47
2018-01-31T21:42:51.283Z,8.10
2018-01-31T21:45:20.947Z,6.03
2018-01-31T21:47:49.261Z,6.85
2018-01-31T21:50:17.263Z,6.73
2018-01-31T21:52:44.886Z,7.10
2018-01-31T21:55:12.420Z,7.10
2018-01-31T21:57:51.760Z,6.63
2018-01-31T22:00:20.111Z,6.43
2018-01-31T22:02:47.641Z,6.37
2018-01-31T22:05:16.840Z,6.80
2018-01-31T22:07:44.377Z,7.12
2018-01-31T22:10:15.007Z,7.80
2018-01-31T22:12:42.896Z,8.90
2018-01-31T22:15:11.278Z,7.70
2018-01-31T22:17:38.806Z,7.93
2018-01-31T22:20:06.426Z,7.07
2018-01-31T22:22:33.955Z,6.83
2018-01-31T22:25:01.992Z,6.90
2018-01-31T22:27:29.543Z,6.85
2018-01-31T22:29:57.843Z,8.23
2018-01-31T22:32:25.374Z,7.80
2018-01-31T22:34:54.442Z,7.90
2018-01-31T22:37:21.971Z,9.67
2018-01-31T22:39:49.499Z,8.07
2018-01-31T22:42:17.227Z,8.60
2018-01-31T22:44:44.793Z,6.97
2018-01-31T22:47:12.344Z,6.57
2018-01-31T22:49:39.910Z,7.17
2018-01-31T22:52:07.476Z,8.45
2018-01-31T22:54:35.008Z,7.17
2018-01-31T22:57:02.863Z,8.00
2018-01-31T22:59:30.394Z,6.77
2018-01-31T23:01:57.936Z,10.43
2018-01-31T23:04:26.270Z,11.52
2018-01-31T23:06:53.803Z,11.83
2018-01-31T23:09:21.338Z,9.67
2018-01-31T23:11:48.895Z,9.90
2018-01-31T23:14:22.047Z,9.90
2018-01-31T23:16:49.575Z,8.40
2018-01-31T23:19:17.463Z,8.27
2018-01-31T23:21:44.996Z,8.40
2018-01-31T23:24:12.531Z,10.10
2018-01-31T23:26:40.099Z,6.67
2018-01-31T23:29:07.639Z,6.77
2018-01-31T23:31:35.931Z,6.90
2018-01-31T23:34:03.498Z,6.53
2018-01-31T23:36:31.164Z,6.87
2018-01-31T23:38:58.738Z,6.67
2018-01-31T23:41:26.851Z,6.53
2018-01-31T23:43:54.383Z,6.57
2018-01-31T23:46:21.910Z,6.50
2018-01-31T23:48:49.490Z,6.05
2018-01-31T23:51:17.014Z,6.30
2018-01-31T23:53:44.543Z,6.10
2018-01-31T23:56:12.091Z,6.73
2018-01-31T23:58:39.623Z,7.80
